sensor_id;sensor_type;location;lat;lon;timestamp;P1;durP1;ratioP1;P2;durP2;ratioP2
30571;SDS011;17348;50.948;10.696;2022-10-16T00:00:26;1.70;;;0.75;;
30571;SDS011;17348;50.948;10.696;2022-10-16T00:03:28;0.55;;;0.47;;
30571;SDS011;17348;50.948;10.696;2022-10-16T00:06:30;1.90;;;0.90;;
30571;SDS011;17348;50.948;10.696;2022-10-16T00:09:34;1.52;;;0.70;;
30571;SDS011;17348;50.948;10.696;2022-10-16T00:12:37;0.95;;;0.60;;
30571;SDS011;17348;50.948;10.696;2022-10-16T00:15:39;0.52;;;0.52;;
30571;SDS011;17348;50.948;10.696;2022-10-16T00:18:43;1.90;;;0.60;;
30571;SDS011;17348;50.948;10.696;2022-10-16T00:21:45;0.90;;;0.50;;
30571;SDS011;17348;50.948;10.696;2022-10-16T00:24:49;6.65;;;0.60;;
30571;SDS011;17348;50.948;10.696;2022-10-16T00:27:51;0.73;;;0.57;;
30571;SDS011;17348;50.948;10.696;2022-10-16T00:30:54;0.80;;;0.50;;
30571;SDS011;17348;50.948;10.696;2022-10-16T00:33:56;2.60;;;0.82;;
30571;SDS011;17348;50.948;10.696;2022-10-16T00:36:58;1.33;;;0.70;;
30571;SDS011;17348;50.948;10.696;2022-10-16T00:40:02;1.50;;;0.70;;
30571;SDS011;17348;50.948;10.696;2022-10-16T00:43:08;0.73;;;0.50;;
30571;SDS011;17348;50.948;10.696;2022-10-16T00:46:15;1.05;;;0.50;;
30571;SDS011;17348;50.948;10.696;2022-10-16T00:49:20;1.10;;;0.60;;
30571;SDS011;17348;50.948;10.696;2022-10-16T00:52:22;0.43;;;0.40;;
30571;SDS011;17348;50.948;10.696;2022-10-16T00:55:26;1.52;;;0.73;;
30571;SDS011;17348;50.948;10.696;2022-10-16T00:58:30;2.10;;;0.70;;
30571;SDS011;17348;50.948;10.696;2022-10-16T01:01:33;0.40;;;0.40;;
30571;SDS011;17348;50.948;10.696;2022-10-16T01:04:35;3.15;;;0.82;;
30571;SDS011;17348;50.948;10.696;2022-10-16T01:07:41;0.57;;;0.40;;
30571;SDS011;17348;50.948;10.696;2022-10-16T01:10:54;1.30;;;0.73;;
30571;SDS011;17348;50.948;10.696;2022-10-16T01:14:02;1.38;;;0.35;;
30571;SDS011;17348;50.948;10.696;2022-10-16T01:17:12;1.05;;;0.43;;
30571;SDS011;17348;50.948;10.696;2022-10-16T01:20:20;1.23;;;0.50;;
30571;SDS011;17348;50.948;10.696;2022-10-16T01:23:31;0.98;;;0.50;;
30571;SDS011;17348;50.948;10.696;2022-10-16T01:30:07;1.48;;;0.40;;
30571;SDS011;17348;50.948;10.696;2022-10-16T01:33:14;0.55;;;0.50;;
30571;SDS011;17348;50.948;10.696;2022-10-16T01:36:21;0.90;;;0.35;;
30571;SDS011;17348;50.948;10.696;2022-10-16T01:39:29;3.35;;;1.15;;
30571;SDS011;17348;50.948;10.696;2022-10-16T01:42:37;1.05;;;0.47;;
30571;SDS011;17348;50.948;10.696;2022-10-16T01:45:43;0.50;;;0.50;;
30571;SDS011;17348;50.948;10.696;2022-10-16T01:48:46;0.63;;;0.50;;
30571;SDS011;17348;50.948;10.696;2022-10-16T01:51:52;0.57;;;0.50;;
30571;SDS011;17348;50.948;10.696;2022-10-16T01:54:58;5.22;;;0.73;;
30571;SDS011;17348;50.948;10.696;2022-10-16T01:58:06;3.90;;;0.60;;
30571;SDS011;17348;50.948;10.696;2022-10-16T02:01:11;1.42;;;0.60;;
30571;SDS011;17348;50.948;10.696;2022-10-16T02:04:15;1.90;;;0.63;;
30571;SDS011;17348;50.948;10.696;2022-10-16T02:07:22;2.05;;;0.45;;
30571;SDS011;17348;50.948;10.696;2022-10-16T02:10:24;0.60;;;0.55;;
30571;SDS011;17348;50.948;10.696;2022-10-16T02:13:33;0.82;;;0.65;;
30571;SDS011;17348;50.948;10.696;2022-10-16T02:16:39;0.50;;;0.50;;
30571;SDS011;17348;50.948;10.696;2022-10-16T02:19:43;0.70;;;0.60;;
30571;SDS011;17348;50.948;10.696;2022-10-16T02:22:47;0.88;;;0.60;;
30571;SDS011;17348;50.948;10.696;2022-10-16T02:25:52;5.38;;;1.05;;
30571;SDS011;17348;50.948;10.696;2022-10-16T02:28:58;1.15;;;0.60;;
30571;SDS011;17348;50.948;10.696;2022-10-16T02:32:05;1.90;;;0.50;;
30571;SDS011;17348;50.948;10.696;2022-10-16T02:35:11;7.55;;;0.70;;
30571;SDS011;17348;50.948;10.696;2022-10-16T02:38:14;0.88;;;0.60;;
30571;SDS011;17348;50.948;10.696;2022-10-16T02:41:18;0.55;;;0.47;;
30571;SDS011;17348;50.948;10.696;2022-10-16T02:44:24;1.23;;;0.40;;
30571;SDS011;17348;50.948;10.696;2022-10-16T02:47:26;1.48;;;0.60;;
30571;SDS011;17348;50.948;10.696;2022-10-16T02:50:28;0.95;;;0.40;;
30571;SDS011;17348;50.948;10.696;2022-10-16T02:53:30;1.05;;;0.70;;
30571;SDS011;17348;50.948;10.696;2022-10-16T02:56:32;0.30;;;0.30;;
30571;SDS011;17348;50.948;10.696;2022-10-16T02:59:36;1.23;;;0.60;;
30571;SDS011;17348;50.948;10.696;2022-10-16T03:02:38;1.42;;;0.47;;
30571;SDS011;17348;50.948;10.696;2022-10-16T03:05:42;2.22;;;0.65;;
30571;SDS011;17348;50.948;10.696;2022-10-16T03:08:46;0.70;;;0.50;;
30571;SDS011;17348;50.948;10.696;2022-10-16T03:11:48;6.60;;;0.90;;
30571;SDS011;17348;50.948;10.696;2022-10-16T03:14:52;1.10;;;0.73;;
30571;SDS011;17348;50.948;10.696;2022-10-16T03:17:54;0.50;;;0.50;;
30571;SDS011;17348;50.948;10.696;2022-10-16T03:20:58;0.47;;;0.47;;
30571;SDS011;17348;50.948;10.696;2022-10-16T03:24:00;2.65;;;0.80;;
30571;SDS011;17348;50.948;10.696;2022-10-16T03:27:03;0.50;;;0.43;;
30571;SDS011;17348;50.948;10.696;2022-10-16T03:30:07;1.23;;;0.52;;
30571;SDS011;17348;50.948;10.696;2022-10-16T03:33:10;0.93;;;0.73;;
30571;SDS011;17348;50.948;10.696;2022-10-16T03:36:13;1.35;;;0.73;;
30571;SDS011;17348;50.948;10.696;2022-10-16T03:39:15;0.60;;;0.60;;
30571;SDS011;17348;50.948;10.696;2022-10-16T03:42:17;0.52;;;0.50;;
30571;SDS011;17348;50.948;10.696;2022-10-16T03:45:21;0.70;;;0.40;;
30571;SDS011;17348;50.948;10.696;2022-10-16T03:48:23;2.85;;;0.85;;
30571;SDS011;17348;50.948;10.696;2022-10-16T03:51:25;2.10;;;0.75;;
30571;SDS011;17348;50.948;10.696;2022-10-16T03:54:27;0.57;;;0.57;;
30571;SDS011;17348;50.948;10.696;2022-10-16T03:57:30;1.40;;;1.00;;
30571;SDS011;17348;50.948;10.696;2022-10-16T04:00:33;1.55;;;0.50;;
30571;SDS011;17348;50.948;10.696;2022-10-16T04:03:36;2.10;;;0.70;;
30571;SDS011;17348;50.948;10.696;2022-10-16T04:06:38;3.58;;;0.88;;
30571;SDS011;17348;50.948;10.696;2022-10-16T04:09:40;1.17;;;0.40;;
30571;SDS011;17348;50.948;10.696;2022-10-16T04:12:42;0.65;;;0.47;;
30571;SDS011;17348;50.948;10.696;2022-10-16T04:15:46;0.63;;;0.40;;
30571;SDS011;17348;50.948;10.696;2022-10-16T04:18:48;5.00;;;0.80;;
30571;SDS011;17348;50.948;10.696;2022-10-16T04:21:50;5.05;;;0.88;;
30571;SDS011;17348;50.948;10.696;2022-10-16T04:24:52;0.95;;;0.50;;
30571;SDS011;17348;50.948;10.696;2022-10-16T04:27:55;0.45;;;0.40;;
30571;SDS011;17348;50.948;10.696;2022-10-16T04:30:59;10.38;;;0.70;;
30571;SDS011;17348;50.948;10.696;2022-10-16T04:34:01;1.55;;;0.50;;
30571;SDS011;17348;50.948;10.696;2022-10-16T04:37:03;0.73;;;0.60;;
30571;SDS011;17348;50.948;10.696;2022-10-16T04:40:06;1.20;;;0.70;;
30571;SDS011;17348;50.948;10.696;2022-10-16T04:43:09;2.70;;;0.70;;
30571;SDS011;17348;50.948;10.696;2022-10-16T04:46:12;2.58;;;1.02;;
30571;SDS011;17348;50.948;10.696;2022-10-16T04:49:14;3.88;;;1.00;;
30571;SDS011;17348;50.948;10.696;2022-10-16T04:52:17;2.47;;;0.70;;
30571;SDS011;17348;50.948;10.696;2022-10-16T04:55:19;2.40;;;1.00;;
30571;SDS011;17348;50.948;10.696;2022-10-16T04:58:21;3.45;;;0.52;;
30571;SDS011;17348;50.948;10.696;2022-10-16T05:01:25;1.20;;;0.85;;
30571;SDS011;17348;50.948;10.696;2022-10-16T05:04:27;1.90;;;1.02;;
30571;SDS011;17348;50.948;10.696;2022-10-16T05:07:30;1.45;;;1.02;;
30571;SDS011;17348;50.948;10.696;2022-10-16T05:10:32;3.58;;;0.90;;
30571;SDS011;17348;50.948;10.696;2022-10-16T05:13:34;1.20;;;0.80;;
30571;SDS011;17348;50.948;10.696;2022-10-16T05:16:38;1.65;;;0.90;;
30571;SDS011;17348;50.948;10.696;2022-10-16T05:19:40;0.98;;;0.77;;
30571;SDS011;17348;50.948;10.696;2022-10-16T05:22:42;1.75;;;1.00;;
30571;SDS011;17348;50.948;10.696;2022-10-16T05:25:51;1.48;;;0.75;;
30571;SDS011;17348;50.948;10.696;2022-10-16T05:28:54;1.30;;;0.80;;
30571;SDS011;17348;50.948;10.696;2022-10-16T05:31:58;0.70;;;0.70;;
30571;SDS011;17348;50.948;10.696;2022-10-16T05:35:00;0.70;;;0.70;;
30571;SDS011;17348;50.948;10.696;2022-10-16T05:38:02;1.48;;;1.00;;
30571;SDS011;17348;50.948;10.696;2022-10-16T05:41:05;5.80;;;0.60;;
30571;SDS011;17348;50.948;10.696;2022-10-16T05:44:07;5.47;;;0.88;;
30571;SDS011;17348;50.948;10.696;2022-10-16T05:47:11;2.45;;;1.00;;
30571;SDS011;17348;50.948;10.696;2022-10-16T05:50:14;1.20;;;0.85;;
30571;SDS011;17348;50.948;10.696;2022-10-16T05:53:16;2.67;;;0.70;;
30571;SDS011;17348;50.948;10.696;2022-10-16T05:56:25;0.80;;;0.80;;
30571;SDS011;17348;50.948;10.696;2022-10-16T05:59:28;1.20;;;0.80;;
30571;SDS011;17348;50.948;10.696;2022-10-16T06:02:31;0.52;;;0.52;;
30571;SDS011;17348;50.948;10.696;2022-10-16T06:05:33;1.85;;;0.77;;
30571;SDS011;17348;50.948;10.696;2022-10-16T06:08:36;1.77;;;0.52;;
30571;SDS011;17348;50.948;10.696;2022-10-16T06:11:38;1.42;;;0.50;;
30571;SDS011;17348;50.948;10.696;2022-10-16T06:14:41;3.13;;;0.68;;
30571;SDS011;17348;50.948;10.696;2022-10-16T06:17:44;0.40;;;0.40;;
30571;SDS011;17348;50.948;10.696;2022-10-16T06:20:46;1.50;;;0.50;;
30571;SDS011;17348;50.948;10.696;2022-10-16T06:23:49;0.73;;;0.43;;
30571;SDS011;17348;50.948;10.696;2022-10-16T06:26:51;0.47;;;0.40;;
30571;SDS011;17348;50.948;10.696;2022-10-16T06:29:53;0.40;;;0.40;;
30571;SDS011;17348;50.948;10.696;2022-10-16T06:32:57;14.32;;;2.03;;
30571;SDS011;17348;50.948;10.696;2022-10-16T06:36:02;0.77;;;0.57;;
30571;SDS011;17348;50.948;10.696;2022-10-16T06:39:04;1.63;;;0.40;;
30571;SDS011;17348;50.948;10.696;2022-10-16T06:42:07;1.55;;;0.50;;
30571;SDS011;17348;50.948;10.696;2022-10-16T06:45:09;4.10;;;0.68;;
30571;SDS011;17348;50.948;10.696;2022-10-16T06:48:14;0.40;;;0.30;;
30571;SDS011;17348;50.948;10.696;2022-10-16T06:51:17;1.27;;;0.40;;
30571;SDS011;17348;50.948;10.696;2022-10-16T06:54:20;0.52;;;0.40;;
30571;SDS011;17348;50.948;10.696;2022-10-16T06:57:22;0.77;;;0.50;;
30571;SDS011;17348;50.948;10.696;2022-10-16T07:00:24;1.42;;;0.63;;
30571;SDS011;17348;50.948;10.696;2022-10-16T07:03:28;1.02;;;0.52;;
30571;SDS011;17348;50.948;10.696;2022-10-16T07:06:31;4.18;;;0.60;;
30571;SDS011;17348;50.948;10.696;2022-10-16T07:09:34;3.03;;;0.40;;
30571;SDS011;17348;50.948;10.696;2022-10-16T07:12:37;2.25;;;0.63;;
30571;SDS011;17348;50.948;10.696;2022-10-16T07:15:39;0.75;;;0.50;;
30571;SDS011;17348;50.948;10.696;2022-10-16T07:18:43;1.30;;;0.73;;
30571;SDS011;17348;50.948;10.696;2022-10-16T07:21:47;2.95;;;0.73;;
30571;SDS011;17348;50.948;10.696;2022-10-16T07:24:49;0.45;;;0.40;;
30571;SDS011;17348;50.948;10.696;2022-10-16T07:27:52;0.50;;;0.30;;
30571;SDS011;17348;50.948;10.696;2022-10-16T07:30:59;0.95;;;0.50;;
30571;SDS011;17348;50.948;10.696;2022-10-16T07:34:04;1.00;;;0.32;;
30571;SDS011;17348;50.948;10.696;2022-10-16T07:37:06;1.52;;;0.40;;
30571;SDS011;17348;50.948;10.696;2022-10-16T07:40:08;3.30;;;0.40;;
30571;SDS011;17348;50.948;10.696;2022-10-16T07:43:11;0.32;;;0.32;;
30571;SDS011;17348;50.948;10.696;2022-10-16T07:46:14;2.35;;;0.57;;
30571;SDS011;17348;50.948;10.696;2022-10-16T07:49:18;2.30;;;0.30;;
30571;SDS011;17348;50.948;10.696;2022-10-16T07:52:21;0.73;;;0.30;;
30571;SDS011;17348;50.948;10.696;2022-10-16T07:55:23;2.65;;;0.35;;
30571;SDS011;17348;50.948;10.696;2022-10-16T07:58:25;0.32;;;0.30;;
30571;SDS011;17348;50.948;10.696;2022-10-16T08:01:28;1.20;;;0.40;;
30571;SDS011;17348;50.948;10.696;2022-10-16T08:04:31;1.25;;;0.40;;
30571;SDS011;17348;50.948;10.696;2022-10-16T08:07:34;1.45;;;0.43;;
30571;SDS011;17348;50.948;10.696;2022-10-16T08:10:36;8.00;;;0.43;;
30571;SDS011;17348;50.948;10.696;2022-10-16T08:13:38;1.88;;;0.40;;
30571;SDS011;17348;50.948;10.696;2022-10-16T08:16:40;7.03;;;0.50;;
30571;SDS011;17348;50.948;10.696;2022-10-16T08:19:45;7.88;;;0.60;;
30571;SDS011;17348;50.948;10.696;2022-10-16T08:22:47;0.70;;;0.57;;
30571;SDS011;17348;50.948;10.696;2022-10-16T08:25:50;1.02;;;0.75;;
30571;SDS011;17348;50.948;10.696;2022-10-16T08:28:52;1.00;;;0.60;;
30571;SDS011;17348;50.948;10.696;2022-10-16T08:31:55;3.38;;;0.70;;
30571;SDS011;17348;50.948;10.696;2022-10-16T08:34:58;2.70;;;0.60;;
30571;SDS011;17348;50.948;10.696;2022-10-16T08:38:02;1.15;;;0.80;;
30571;SDS011;17348;50.948;10.696;2022-10-16T08:41:17;1.90;;;0.68;;
30571;SDS011;17348;50.948;10.696;2022-10-16T08:44:36;2.75;;;0.60;;
30571;SDS011;17348;50.948;10.696;2022-10-16T08:47:54;1.48;;;0.73;;
30571;SDS011;17348;50.948;10.696;2022-10-16T08:51:05;6.55;;;0.40;;
30571;SDS011;17348;50.948;10.696;2022-10-16T08:54:15;0.50;;;0.50;;
30571;SDS011;17348;50.948;10.696;2022-10-16T08:57:24;0.73;;;0.63;;
30571;SDS011;17348;50.948;10.696;2022-10-16T09:00:27;0.82;;;0.55;;
30571;SDS011;17348;50.948;10.696;2022-10-16T09:03:34;1.30;;;0.70;;
30571;SDS011;17348;50.948;10.696;2022-10-16T09:06:50;1.15;;;0.60;;
30571;SDS011;17348;50.948;10.696;2022-10-16T09:10:03;1.23;;;0.70;;
30571;SDS011;17348;50.948;10.696;2022-10-16T09:13:17;0.98;;;0.73;;
30571;SDS011;17348;50.948;10.696;2022-10-16T09:16:26;5.45;;;0.65;;
30571;SDS011;17348;50.948;10.696;2022-10-16T09:19:33;1.00;;;0.70;;
30571;SDS011;17348;50.948;10.696;2022-10-16T09:22:40;0.57;;;0.50;;
30571;SDS011;17348;50.948;10.696;2022-10-16T09:25:44;0.70;;;0.52;;
30571;SDS011;17348;50.948;10.696;2022-10-16T09:28:49;0.52;;;0.47;;
30571;SDS011;17348;50.948;10.696;2022-10-16T09:31:54;1.08;;;0.80;;
30571;SDS011;17348;50.948;10.696;2022-10-16T09:34:59;2.28;;;0.65;;
30571;SDS011;17348;50.948;10.696;2022-10-16T09:38:02;1.15;;;0.90;;
30571;SDS011;17348;50.948;10.696;2022-10-16T09:41:11;1.60;;;0.60;;
30571;SDS011;17348;50.948;10.696;2022-10-16T09:44:18;0.95;;;0.85;;
30571;SDS011;17348;50.948;10.696;2022-10-16T09:47:25;1.10;;;0.75;;
30571;SDS011;17348;50.948;10.696;2022-10-16T09:50:29;0.77;;;0.50;;
30571;SDS011;17348;50.948;10.696;2022-10-16T09:53:41;1.40;;;0.80;;
30571;SDS011;17348;50.948;10.696;2022-10-16T09:56:44;0.68;;;0.60;;
30571;SDS011;17348;50.948;10.696;2022-10-16T09:59:52;0.90;;;0.70;;
30571;SDS011;17348;50.948;10.696;2022-10-16T10:02:56;3.17;;;0.70;;
30571;SDS011;17348;50.948;10.696;2022-10-16T10:05:58;1.60;;;0.65;;
30571;SDS011;17348;50.948;10.696;2022-10-16T10:09:04;2.17;;;1.00;;
30571;SDS011;17348;50.948;10.696;2022-10-16T10:12:14;1.73;;;0.95;;
30571;SDS011;17348;50.948;10.696;2022-10-16T10:15:20;1.27;;;0.75;;
30571;SDS011;17348;50.948;10.696;2022-10-16T10:18:24;0.60;;;0.60;;
30571;SDS011;17348;50.948;10.696;2022-10-16T10:21:26;1.10;;;0.68;;
30571;SDS011;17348;50.948;10.696;2022-10-16T10:24:30;1.10;;;0.55;;
30571;SDS011;17348;50.948;10.696;2022-10-16T10:27:34;1.23;;;0.73;;
30571;SDS011;17348;50.948;10.696;2022-10-16T10:30:44;0.63;;;0.60;;
30571;SDS011;17348;50.948;10.696;2022-10-16T10:33:52;1.80;;;0.88;;
30571;SDS011;17348;50.948;10.696;2022-10-16T10:37:00;5.72;;;1.00;;
30571;SDS011;17348;50.948;10.696;2022-10-16T10:40:13;1.55;;;0.80;;
30571;SDS011;17348;50.948;10.696;2022-10-16T10:43:27;1.48;;;1.08;;
30571;SDS011;17348;50.948;10.696;2022-10-16T10:46:41;2.45;;;0.70;;
30571;SDS011;17348;50.948;10.696;2022-10-16T10:49:49;2.00;;;0.88;;
30571;SDS011;17348;50.948;10.696;2022-10-16T10:53:00;1.35;;;0.80;;
30571;SDS011;17348;50.948;10.696;2022-10-16T10:56:15;2.45;;;0.93;;
30571;SDS011;17348;50.948;10.696;2022-10-16T10:59:33;2.55;;;0.80;;
30571;SDS011;17348;50.948;10.696;2022-10-16T11:02:50;0.77;;;0.68;;
30571;SDS011;17348;50.948;10.696;2022-10-16T11:06:02;1.50;;;0.75;;
30571;SDS011;17348;50.948;10.696;2022-10-16T11:09:09;2.22;;;0.65;;
30571;SDS011;17348;50.948;10.696;2022-10-16T11:12:17;0.75;;;0.60;;
30571;SDS011;17348;50.948;10.696;2022-10-16T11:15:23;0.63;;;0.43;;
30571;SDS011;17348;50.948;10.696;2022-10-16T11:18:30;2.10;;;0.68;;
30571;SDS011;17348;50.948;10.696;2022-10-16T11:21:43;1.98;;;0.55;;
30571;SDS011;17348;50.948;10.696;2022-10-16T11:24:51;1.38;;;0.52;;
30571;SDS011;17348;50.948;10.696;2022-10-16T11:28:03;1.20;;;0.70;;
30571;SDS011;17348;50.948;10.696;2022-10-16T11:31:13;2.25;;;0.88;;
30571;SDS011;17348;50.948;10.696;2022-10-16T11:34:21;0.40;;;0.40;;
30571;SDS011;17348;50.948;10.696;2022-10-16T11:37:28;0.77;;;0.65;;
30571;SDS011;17348;50.948;10.696;2022-10-16T11:40:33;0.63;;;0.40;;
30571;SDS011;17348;50.948;10.696;2022-10-16T11:43:45;1.25;;;0.40;;
30571;SDS011;17348;50.948;10.696;2022-10-16T11:46:58;1.52;;;0.68;;
30571;SDS011;17348;50.948;10.696;2022-10-16T11:50:12;0.40;;;0.40;;
30571;SDS011;17348;50.948;10.696;2022-10-16T11:53:23;1.73;;;0.70;;
30571;SDS011;17348;50.948;10.696;2022-10-16T11:56:40;1.02;;;0.90;;
30571;SDS011;17348;50.948;10.696;2022-10-16T11:59:48;2.63;;;0.73;;
30571;SDS011;17348;50.948;10.696;2022-10-16T12:02:57;0.88;;;0.70;;
30571;SDS011;17348;50.948;10.696;2022-10-16T12:06:14;1.50;;;0.70;;
30571;SDS011;17348;50.948;10.696;2022-10-16T12:09:27;0.95;;;0.40;;
30571;SDS011;17348;50.948;10.696;2022-10-16T12:12:37;0.50;;;0.40;;
30571;SDS011;17348;50.948;10.696;2022-10-16T12:15:43;0.82;;;0.30;;
30571;SDS011;17348;50.948;10.696;2022-10-16T12:18:45;0.52;;;0.30;;
30571;SDS011;17348;50.948;10.696;2022-10-16T12:21:48;0.57;;;0.40;;
30571;SDS011;17348;50.948;10.696;2022-10-16T12:24:52;0.40;;;0.40;;
30571;SDS011;17348;50.948;10.696;2022-10-16T12:27:57;5.55;;;0.38;;
30571;SDS011;17348;50.948;10.696;2022-10-16T12:31:03;0.90;;;0.60;;
30571;SDS011;17348;50.948;10.696;2022-10-16T12:34:14;0.85;;;0.52;;
30571;SDS011;17348;50.948;10.696;2022-10-16T12:37:24;1.00;;;0.60;;
30571;SDS011;17348;50.948;10.696;2022-10-16T12:40:29;0.60;;;0.55;;
30571;SDS011;17348;50.948;10.696;2022-10-16T12:43:36;0.65;;;0.45;;
30571;SDS011;17348;50.948;10.696;2022-10-16T12:46:41;0.28;;;0.28;;
30571;SDS011;17348;50.948;10.696;2022-10-16T12:49:52;0.30;;;0.30;;
30571;SDS011;17348;50.948;10.696;2022-10-16T12:52:55;0.38;;;0.38;;
30571;SDS011;17348;50.948;10.696;2022-10-16T12:56:03;0.93;;;0.50;;
30571;SDS011;17348;50.948;10.696;2022-10-16T12:59:14;0.20;;;0.20;;
30571;SDS011;17348;50.948;10.696;2022-10-16T13:05:57;0.20;;;0.20;;
30571;SDS011;17348;50.948;10.696;2022-10-16T13:09:11;0.63;;;0.32;;
30571;SDS011;17348;50.948;10.696;2022-10-16T13:12:39;0.28;;;0.28;;
30571;SDS011;17348;50.948;10.696;2022-10-16T13:16:02;0.93;;;0.55;;
30571;SDS011;17348;50.948;10.696;2022-10-16T13:19:17;1.25;;;0.60;;
30571;SDS011;17348;50.948;10.696;2022-10-16T13:22:27;2.35;;;0.88;;
30571;SDS011;17348;50.948;10.696;2022-10-16T13:25:38;0.57;;;0.43;;
30571;SDS011;17348;50.948;10.696;2022-10-16T13:28:51;0.60;;;0.50;;
30571;SDS011;17348;50.948;10.696;2022-10-16T13:31:53;3.35;;;1.00;;
30571;SDS011;17348;50.948;10.696;2022-10-16T13:34:56;0.63;;;0.60;;
30571;SDS011;17348;50.948;10.696;2022-10-16T13:38:04;0.40;;;0.40;;
30571;SDS011;17348;50.948;10.696;2022-10-16T13:41:13;0.35;;;0.35;;
30571;SDS011;17348;50.948;10.696;2022-10-16T13:44:17;0.95;;;0.82;;
30571;SDS011;17348;50.948;10.696;2022-10-16T13:47:22;2.65;;;0.57;;
30571;SDS011;17348;50.948;10.696;2022-10-16T13:50:27;0.90;;;0.50;;
30571;SDS011;17348;50.948;10.696;2022-10-16T13:53:32;1.00;;;0.80;;
30571;SDS011;17348;50.948;10.696;2022-10-16T13:56:36;0.38;;;0.32;;
30571;SDS011;17348;50.948;10.696;2022-10-16T13:59:40;0.60;;;0.50;;
30571;SDS011;17348;50.948;10.696;2022-10-16T14:02:42;1.67;;;0.90;;
30571;SDS011;17348;50.948;10.696;2022-10-16T14:05:46;1.92;;;0.63;;
30571;SDS011;17348;50.948;10.696;2022-10-16T14:08:53;0.90;;;0.60;;
30571;SDS011;17348;50.948;10.696;2022-10-16T14:11:57;0.80;;;0.70;;
30571;SDS011;17348;50.948;10.696;2022-10-16T14:15:01;1.45;;;0.40;;
30571;SDS011;17348;50.948;10.696;2022-10-16T14:18:04;0.82;;;0.63;;
30571;SDS011;17348;50.948;10.696;2022-10-16T14:21:11;1.00;;;0.80;;
30571;SDS011;17348;50.948;10.696;2022-10-16T14:24:25;0.50;;;0.50;;
30571;SDS011;17348;50.948;10.696;2022-10-16T14:27:30;1.17;;;0.63;;
30571;SDS011;17348;50.948;10.696;2022-10-16T14:30:34;0.90;;;0.80;;
30571;SDS011;17348;50.948;10.696;2022-10-16T14:33:37;0.80;;;0.80;;
30571;SDS011;17348;50.948;10.696;2022-10-16T14:36:41;1.50;;;0.90;;
30571;SDS011;17348;50.948;10.696;2022-10-16T14:39:48;1.05;;;0.70;;
30571;SDS011;17348;50.948;10.696;2022-10-16T14:42:51;4.13;;;0.50;;
30571;SDS011;17348;50.948;10.696;2022-10-16T14:45:55;0.50;;;0.50;;
30571;SDS011;17348;50.948;10.696;2022-10-16T14:48:59;2.53;;;1.40;;
30571;SDS011;17348;50.948;10.696;2022-10-16T14:52:09;2.50;;;2.08;;
30571;SDS011;17348;50.948;10.696;2022-10-16T14:55:12;8.32;;;1.45;;
30571;SDS011;17348;50.948;10.696;2022-10-16T14:58:15;1.50;;;1.10;;
30571;SDS011;17348;50.948;10.696;2022-10-16T15:01:19;3.33;;;0.82;;
30571;SDS011;17348;50.948;10.696;2022-10-16T15:04:21;2.15;;;1.30;;
30571;SDS011;17348;50.948;10.696;2022-10-16T15:07:25;1.17;;;1.00;;
30571;SDS011;17348;50.948;10.696;2022-10-16T15:10:27;2.30;;;1.00;;
30571;SDS011;17348;50.948;10.696;2022-10-16T15:13:32;1.75;;;1.30;;
30571;SDS011;17348;50.948;10.696;2022-10-16T15:16:34;3.60;;;2.20;;
30571;SDS011;17348;50.948;10.696;2022-10-16T15:19:36;28.23;;;2.67;;
30571;SDS011;17348;50.948;10.696;2022-10-16T15:22:40;2.13;;;1.30;;
30571;SDS011;17348;50.948;10.696;2022-10-16T15:25:43;4.20;;;1.42;;
30571;SDS011;17348;50.948;10.696;2022-10-16T15:28:47;2.35;;;1.50;;
30571;SDS011;17348;50.948;10.696;2022-10-16T15:31:49;2.17;;;1.67;;
30571;SDS011;17348;50.948;10.696;2022-10-16T15:34:51;5.57;;;2.28;;
30571;SDS011;17348;50.948;10.696;2022-10-16T15:37:55;6.28;;;2.17;;
30571;SDS011;17348;50.948;10.696;2022-10-16T15:40:58;5.32;;;1.17;;
30571;SDS011;17348;50.948;10.696;2022-10-16T15:44:01;2.38;;;1.50;;
30571;SDS011;17348;50.948;10.696;2022-10-16T15:47:03;1.95;;;1.27;;
30571;SDS011;17348;50.948;10.696;2022-10-16T15:50:06;2.67;;;1.30;;
30571;SDS011;17348;50.948;10.696;2022-10-16T15:53:12;1.80;;;1.20;;
30571;SDS011;17348;50.948;10.696;2022-10-16T15:56:14;2.42;;;1.27;;
30571;SDS011;17348;50.948;10.696;2022-10-16T15:59:16;1.30;;;1.15;;
30571;SDS011;17348;50.948;10.696;2022-10-16T16:02:18;2.05;;;1.15;;
30571;SDS011;17348;50.948;10.696;2022-10-16T16:05:21;3.85;;;1.48;;
30571;SDS011;17348;50.948;10.696;2022-10-16T16:08:25;1.52;;;1.13;;
30571;SDS011;17348;50.948;10.696;2022-10-16T16:11:27;3.67;;;1.08;;
30571;SDS011;17348;50.948;10.696;2022-10-16T16:14:32;1.67;;;1.10;;
30571;SDS011;17348;50.948;10.696;2022-10-16T16:17:34;1.52;;;1.20;;
30571;SDS011;17348;50.948;10.696;2022-10-16T16:20:37;2.25;;;1.30;;
30571;SDS011;17348;50.948;10.696;2022-10-16T16:23:41;2.90;;;1.60;;
30571;SDS011;17348;50.948;10.696;2022-10-16T16:26:43;1.88;;;1.42;;
30571;SDS011;17348;50.948;10.696;2022-10-16T16:29:45;2.67;;;2.03;;
30571;SDS011;17348;50.948;10.696;2022-10-16T16:32:47;13.63;;;6.20;;
30571;SDS011;17348;50.948;10.696;2022-10-16T16:35:50;13.95;;;8.13;;
30571;SDS011;17348;50.948;10.696;2022-10-16T16:38:53;9.95;;;5.15;;
30571;SDS011;17348;50.948;10.696;2022-10-16T16:41:55;9.40;;;4.43;;
30571;SDS011;17348;50.948;10.696;2022-10-16T16:44:58;9.70;;;4.72;;
30571;SDS011;17348;50.948;10.696;2022-10-16T16:48:01;6.53;;;3.92;;
30571;SDS011;17348;50.948;10.696;2022-10-16T16:51:03;7.15;;;4.60;;
30571;SDS011;17348;50.948;10.696;2022-10-16T16:54:07;7.25;;;4.50;;
30571;SDS011;17348;50.948;10.696;2022-10-16T16:57:13;7.82;;;4.63;;
30571;SDS011;17348;50.948;10.696;2022-10-16T17:00:15;7.22;;;4.50;;
30571;SDS011;17348;50.948;10.696;2022-10-16T17:03:17;9.95;;;6.10;;
30571;SDS011;17348;50.948;10.696;2022-10-16T17:06:20;9.27;;;5.53;;
30571;SDS011;17348;50.948;10.696;2022-10-16T17:09:26;14.43;;;6.07;;
30571;SDS011;17348;50.948;10.696;2022-10-16T17:12:28;9.63;;;5.55;;
30571;SDS011;17348;50.948;10.696;2022-10-16T17:15:31;19.50;;;6.10;;
30571;SDS011;17348;50.948;10.696;2022-10-16T17:18:33;11.40;;;5.65;;
30571;SDS011;17348;50.948;10.696;2022-10-16T17:21:36;9.43;;;5.88;;
30571;SDS011;17348;50.948;10.696;2022-10-16T17:24:39;9.57;;;5.97;;
30571;SDS011;17348;50.948;10.696;2022-10-16T17:27:42;9.35;;;6.20;;
30571;SDS011;17348;50.948;10.696;2022-10-16T17:30:44;10.38;;;5.45;;
30571;SDS011;17348;50.948;10.696;2022-10-16T17:33:47;12.10;;;7.18;;
30571;SDS011;17348;50.948;10.696;2022-10-16T17:36:51;9.50;;;5.63;;
30571;SDS011;17348;50.948;10.696;2022-10-16T17:39:54;9.68;;;5.55;;
30571;SDS011;17348;50.948;10.696;2022-10-16T17:42:56;7.75;;;4.97;;
30571;SDS011;17348;50.948;10.696;2022-10-16T17:46:00;15.40;;;4.95;;
30571;SDS011;17348;50.948;10.696;2022-10-16T17:49:03;8.48;;;5.03;;
30571;SDS011;17348;50.948;10.696;2022-10-16T17:52:05;9.85;;;5.15;;
30571;SDS011;17348;50.948;10.696;2022-10-16T17:55:09;10.85;;;5.25;;
30571;SDS011;17348;50.948;10.696;2022-10-16T17:58:11;16.42;;;6.13;;
30571;SDS011;17348;50.948;10.696;2022-10-16T18:01:14;9.48;;;5.88;;
30571;SDS011;17348;50.948;10.696;2022-10-16T18:04:18;19.13;;;9.27;;
30571;SDS011;17348;50.948;10.696;2022-10-16T18:07:20;22.27;;;9.68;;
30571;SDS011;17348;50.948;10.696;2022-10-16T18:10:24;18.35;;;8.70;;
30571;SDS011;17348;50.948;10.696;2022-10-16T18:13:27;9.35;;;5.07;;
30571;SDS011;17348;50.948;10.696;2022-10-16T18:16:29;18.33;;;7.97;;
30571;SDS011;17348;50.948;10.696;2022-10-16T18:19:32;19.38;;;7.45;;
30571;SDS011;17348;50.948;10.696;2022-10-16T18:22:34;15.15;;;8.05;;